createdAt,value
2023-04-02T00:00:10.922Z,99.90
2023-04-02T00:02:56.678Z,99.90
2023-04-02T00:05:34.721Z,99.90
2023-04-02T00:08:10.073Z,99.90
2023-04-02T00:10:46.924Z,99.90
2023-04-02T00:13:22.334Z,99.90
2023-04-02T00:15:54.588Z,99.90
2023-04-02T00:18:22.786Z,99.90
2023-04-02T00:21:03.424Z,99.90
2023-04-02T00:23:31.007Z,99.90
2023-04-02T00:25:58.584Z,99.90
2023-04-02T00:28:26.565Z,99.90
2023-04-02T00:31:00.160Z,99.90
2023-04-02T00:33:31.572Z,99.90
2023-04-02T00:35:59.617Z,99.90
2023-04-02T00:38:31.819Z,99.90
2023-04-02T00:41:06.289Z,99.90
2023-04-02T00:43:38.433Z,99.90
2023-04-02T00:46:14.584Z,99.90
2023-04-02T00:48:46.840Z,99.90
2023-04-02T00:51:46.611Z,99.90
2023-04-02T00:54:17.664Z,99.90
2023-04-02T00:56:48.314Z,99.90
2023-04-02T00:59:36.859Z,99.90
2023-04-02T01:02:18.550Z,99.90
2023-04-02T01:04:59.770Z,99.90
2023-04-02T01:07:42.655Z,99.90
2023-04-02T01:10:18.470Z,99.90
2023-04-02T01:12:50.915Z,99.90
2023-04-02T01:15:21.431Z,99.90
2023-04-02T01:18:18.462Z,99.90
2023-04-02T01:21:03.490Z,99.90
2023-04-02T01:23:46.363Z,99.90
2023-04-02T01:26:25.511Z,99.90
2023-04-02T01:29:25.408Z,99.90
2023-04-02T01:31:55.646Z,99.90
2023-04-02T01:34:26.807Z,99.90
2023-04-02T01:37:22.229Z,99.90
2023-04-02T01:40:17.731Z,99.90
2023-04-02T01:43:14.059Z,99.90
2023-04-02T01:45:42.081Z,99.90
2023-04-02T01:48:24.610Z,99.90
2023-04-02T01:50:55.082Z,99.90
2023-04-02T01:53:25.678Z,99.90
2023-04-02T01:56:00.064Z,99.90
2023-04-02T01:58:31.760Z,99.90
2023-04-02T02:01:07.290Z,99.90
2023-04-02T02:03:36.836Z,99.90
2023-04-02T02:06:06.543Z,99.90
2023-04-02T02:08:34.700Z,99.90
2023-04-02T02:11:02.992Z,99.90
2023-04-02T02:13:31.894Z,99.90
2023-04-02T02:16:01.013Z,99.90
2023-04-02T02:18:29.489Z,99.90
2023-04-02T02:21:00.037Z,99.90
2023-04-02T02:23:29.810Z,99.90
2023-04-02T02:25:58.338Z,99.90
2023-04-02T02:28:36.506Z,99.90
2023-04-02T02:31:19.652Z,99.90
2023-04-02T02:33:53.095Z,99.90
2023-04-02T02:36:40.131Z,99.90
2023-04-02T02:39:22.498Z,99.90
2023-04-02T02:41:56.302Z,99.90
2023-04-02T02:44:46.871Z,99.90
2023-04-02T02:47:23.598Z,99.90
2023-04-02T02:49:56.269Z,99.90
2023-04-02T02:52:32.307Z,99.90
2023-04-02T02:55:08.903Z,99.90
2023-04-02T02:58:19.047Z,99.90
2023-04-02T03:00:58.245Z,99.90
2023-04-02T03:03:32.579Z,99.90
2023-04-02T03:06:09.121Z,99.90
2023-04-02T03:08:59.989Z,99.90
2023-04-02T03:11:44.184Z,99.90
2023-04-02T03:14:24.809Z,99.90
2023-04-02T03:17:03.215Z,99.90
2023-04-02T03:19:49.568Z,99.90
2023-04-02T03:22:27.189Z,99.90
2023-04-02T03:25:19.950Z,99.90
2023-04-02T03:27:52.006Z,99.90
2023-04-02T03:30:38.331Z,99.90
2023-04-02T03:33:17.268Z,99.90
2023-04-02T03:36:07.970Z,99.90
2023-04-02T03:38:46.461Z,99.90
2023-04-02T03:41:29.279Z,99.90
2023-04-02T03:44:01.548Z,99.90
2023-04-02T03:46:58.817Z,99.90
2023-04-02T03:49:52.018Z,99.90
2023-04-02T03:52:30.345Z,99.90
2023-04-02T03:55:09.254Z,99.90
2023-04-02T03:57:47.120Z,99.90
2023-04-02T04:00:42.981Z,99.90
2023-04-02T04:03:14.109Z,99.90
2023-04-02T04:06:21.487Z,99.90
2023-04-02T04:08:58.333Z,99.90
2023-04-02T04:11:37.695Z,99.90
2023-04-02T04:14:20.916Z,99.90
2023-04-02T04:16:55.742Z,99.90
2023-04-02T04:19:33.609Z,99.90
2023-04-02T04:22:30.089Z,99.90
2023-04-02T04:25:07.440Z,99.90
2023-04-02T04:28:13.351Z,99.90
2023-04-02T04:31:00.383Z,99.90
2023-04-02T04:33:45.223Z,99.90
2023-04-02T04:36:28.672Z,99.90
2023-04-02T04:39:15.590Z,99.90
2023-04-02T04:41:48.728Z,99.90
2023-04-02T04:44:21.315Z,99.90
2023-04-02T04:47:11.930Z,99.90
2023-04-02T04:49:47.715Z,99.90
2023-04-02T04:52:49.446Z,99.90
2023-04-02T04:55:35.545Z,99.90
2023-04-02T04:58:37.410Z,99.90
2023-04-02T05:01:19.381Z,99.90
2023-04-02T05:03:59.610Z,99.90
2023-04-02T05:06:34.331Z,99.90
2023-04-02T05:09:13.457Z,99.90
2023-04-02T05:11:49.408Z,99.90
2023-04-02T05:14:27.325Z,99.90
2023-04-02T05:17:13.281Z,99.90
2023-04-02T05:19:57.108Z,99.90
2023-04-02T05:22:28.492Z,99.90
2023-04-02T05:24:56.103Z,99.90
2023-04-02T05:27:36.295Z,99.90
2023-04-02T05:30:20.250Z,99.90
2023-04-02T05:32:58.811Z,99.90
2023-04-02T05:35:34.427Z,99.90
2023-04-02T05:38:03.044Z,99.90
2023-04-02T05:40:41.398Z,99.90
2023-04-02T05:43:18.416Z,99.90
2023-04-02T05:45:53.624Z,99.90
2023-04-02T05:48:38.509Z,99.90
2023-04-02T05:51:15.799Z,99.90
2023-04-02T05:53:53.855Z,99.90
2023-04-02T05:56:33.589Z,99.90
2023-04-02T05:59:11.518Z,99.90
2023-04-02T06:02:14.111Z,99.90
2023-04-02T06:05:05.581Z,99.90
2023-04-02T06:07:58.484Z,99.90
2023-04-02T06:10:32.721Z,99.90
2023-04-02T06:13:16.118Z,99.90
2023-04-02T06:15:47.182Z,99.90
2023-04-02T06:18:25.278Z,99.90
2023-04-02T06:20:54.875Z,99.90
2023-04-02T06:23:36.463Z,99.90
2023-04-02T06:26:27.122Z,99.90
2023-04-02T06:29:08.244Z,99.90
2023-04-02T06:32:01.522Z,99.90
2023-04-02T06:34:31.963Z,99.90
2023-04-02T06:37:36.496Z,99.90
2023-04-02T06:40:18.900Z,99.90
2023-04-02T06:42:48.409Z,99.90
2023-04-02T06:45:35.068Z,99.90
2023-04-02T06:48:25.734Z,99.90
2023-04-02T06:51:05.924Z,99.90
2023-04-02T06:53:48.048Z,99.90
2023-04-02T06:56:36.704Z,99.90
2023-04-02T06:59:04.808Z,99.90
2023-04-02T07:01:41.288Z,99.90
2023-04-02T07:04:10.761Z,99.90
2023-04-02T07:06:42.232Z,99.90
2023-04-02T07:09:12.140Z,99.90
2023-04-02T07:11:43.640Z,99.90
2023-04-02T07:14:14.434Z,99.90
2023-04-02T07:16:44.128Z,99.90
2023-04-02T07:19:23.033Z,99.90
2023-04-02T07:21:55.126Z,99.90
2023-04-02T07:24:25.309Z,99.90
2023-04-02T07:26:53.158Z,99.90
2023-04-02T07:29:21.626Z,99.90
2023-04-02T07:31:49.987Z,99.90
2023-04-02T07:34:18.704Z,99.90
2023-04-02T07:36:46.596Z,99.90
2023-04-02T07:39:14.232Z,99.90
2023-04-02T07:41:56.740Z,99.90
2023-04-02T07:44:24.948Z,99.90
2023-04-02T07:46:52.798Z,99.90
2023-04-02T07:49:21.460Z,99.90
2023-04-02T07:51:49.552Z,99.90
2023-04-02T07:54:17.422Z,99.90
2023-04-02T07:56:46.852Z,99.90
2023-04-02T07:59:15.037Z,99.90
2023-04-02T08:01:43.053Z,99.90
2023-04-02T08:04:21.907Z,99.90
2023-04-02T08:06:50.627Z,99.90
2023-04-02T08:09:18.611Z,99.90
2023-04-02T08:11:46.794Z,99.90
2023-04-02T08:14:14.831Z,99.90
2023-04-02T08:16:53.984Z,99.90
2023-04-02T08:19:22.124Z,99.90
2023-04-02T08:21:51.701Z,99.90
2023-04-02T08:24:20.712Z,99.90
2023-04-02T08:26:51.688Z,99.90
2023-04-02T08:29:20.367Z,99.90
2023-04-02T08:31:48.629Z,99.90
2023-04-02T08:34:16.530Z,99.90
2023-04-02T08:36:45.598Z,99.90
2023-04-02T08:39:14.222Z,99.90
2023-04-02T08:41:54.389Z,99.90
2023-04-02T08:44:26.507Z,99.90
2023-04-02T08:47:04.893Z,99.90
2023-04-02T08:49:45.193Z,99.90
2023-04-02T08:52:30.601Z,99.90
2023-04-02T08:55:00.647Z,99.90
2023-04-02T08:57:41.391Z,99.90
2023-04-02T09:00:38.047Z,99.90
2023-04-02T09:03:19.737Z,99.90
2023-04-02T09:05:50.146Z,99.90
2023-04-02T09:08:21.506Z,99.90
2023-04-02T09:11:02.302Z,99.90
2023-04-02T09:13:31.394Z,99.90
2023-04-02T09:16:08.432Z,99.90
2023-04-02T09:18:38.479Z,99.90
2023-04-02T09:21:21.993Z,99.90
2023-04-02T09:23:50.726Z,99.90
2023-04-02T09:26:28.770Z,99.90
2023-04-02T09:29:11.555Z,99.90
2023-04-02T09:31:44.599Z,99.90
2023-04-02T09:34:32.649Z,99.90
2023-04-02T09:37:17.605Z,99.90
2023-04-02T09:39:46.074Z,99.90
2023-04-02T09:42:35.201Z,99.90
2023-04-02T09:45:32.711Z,99.90
2023-04-02T09:48:00.767Z,99.90
2023-04-02T09:50:32.328Z,99.90
2023-04-02T09:53:17.021Z,99.90
2023-04-02T09:55:45.099Z,99.90
2023-04-02T09:58:15.959Z,99.90
2023-04-02T10:00:54.231Z,99.90
2023-04-02T10:03:26.273Z,99.90
2023-04-02T10:06:11.047Z,99.90
2023-04-02T10:08:41.662Z,99.90
2023-04-02T10:11:43.814Z,99.90
2023-04-02T10:14:25.813Z,99.90
2023-04-02T10:17:20.254Z,99.90
2023-04-02T10:19:56.189Z,99.90
2023-04-02T10:22:24.706Z,99.90
2023-04-02T10:24:52.575Z,99.90
2023-04-02T10:27:45.852Z,99.90
2023-04-02T10:30:20.464Z,99.90
2023-04-02T10:33:00.041Z,99.90
2023-04-02T10:35:36.514Z,99.90
2023-04-02T10:38:22.289Z,99.90
2023-04-02T10:41:07.799Z,99.90
2023-04-02T10:43:48.979Z,99.90
2023-04-02T10:46:27.336Z,99.90
2023-04-02T10:49:01.369Z,99.90
2023-04-02T10:51:34.257Z,99.90
2023-04-02T10:54:34.225Z,99.90
2023-04-02T10:57:10.225Z,99.90
2023-04-02T10:59:42.988Z,99.90
2023-04-02T11:02:33.519Z,99.90
2023-04-02T11:05:13.164Z,99.90
2023-04-02T11:07:55.786Z,99.90
2023-04-02T11:10:23.802Z,99.90
2023-04-02T11:13:24.126Z,99.90
2023-04-02T11:15:52.210Z,99.90
2023-04-02T11:18:27.174Z,99.90
2023-04-02T11:21:00.609Z,99.90
2023-04-02T11:23:33.868Z,99.90
2023-04-02T11:26:32.440Z,99.90
2023-04-02T11:29:12.228Z,99.90
2023-04-02T11:31:42.653Z,99.90
2023-04-02T11:34:43.030Z,99.90
2023-04-02T11:37:38.651Z,99.90
2023-04-02T11:40:12.171Z,99.90
2023-04-02T11:42:48.075Z,99.90
2023-04-02T11:45:21.800Z,99.90
2023-04-02T11:48:01.704Z,99.90
2023-04-02T11:50:31.403Z,99.90
2023-04-02T11:53:12.310Z,99.90
2023-04-02T11:55:58.726Z,99.90
2023-04-02T11:58:47.823Z,99.90
2023-04-02T12:01:22.416Z,99.90
2023-04-02T12:04:17.632Z,99.90
2023-04-02T12:07:20.196Z,99.90
2023-04-02T12:09:52.591Z,99.90
2023-04-02T12:12:34.286Z,99.90
2023-04-02T12:15:01.755Z,99.90
2023-04-02T12:17:29.276Z,99.90
2023-04-02T12:20:01.928Z,99.90
2023-04-02T12:22:33.024Z,99.90
2023-04-02T12:25:04.834Z,99.90
2023-04-02T12:27:32.878Z,96.20
2023-04-02T12:30:21.321Z,96.50
2023-04-02T12:32:50.385Z,94.00
2023-04-02T12:35:36.085Z,92.20
2023-04-02T12:38:03.731Z,88.90
2023-04-02T12:40:31.331Z,90.60
2023-04-02T12:42:58.934Z,89.20
2023-04-02T12:45:36.657Z,85.70
2023-04-02T12:48:06.172Z,79.90
2023-04-02T12:50:34.793Z,81.20
2023-04-02T12:53:02.732Z,80.50
2023-04-02T12:55:31.811Z,80.60
2023-04-02T12:58:00.244Z,73.80
2023-04-02T13:00:31.055Z,75.60
2023-04-02T13:03:21.899Z,72.50
2023-04-02T13:05:53.964Z,66.60
2023-04-02T13:08:42.913Z,58.60
2023-04-02T13:11:10.621Z,55.80
2023-04-02T13:13:40.635Z,55.30
2023-04-02T13:16:17.513Z,52.00
2023-04-02T13:18:47.895Z,48.10
2023-04-02T13:21:21.462Z,49.10
2023-04-02T13:23:49.209Z,47.00
2023-04-02T13:26:20.246Z,47.40
2023-04-02T13:28:57.013Z,46.70
2023-04-02T13:31:24.711Z,46.90
2023-04-02T13:33:52.281Z,47.70
2023-04-02T13:36:19.942Z,47.10
2023-04-02T13:38:47.444Z,44.40
2023-04-02T13:41:30.625Z,45.60
2023-04-02T13:44:01.304Z,43.20
2023-04-02T13:46:34.032Z,42.50
2023-04-02T13:49:02.055Z,38.90
2023-04-02T13:51:39.869Z,40.30
2023-04-02T13:57:11.658Z,37.90
2023-04-02T13:59:39.260Z,38.00
2023-04-02T14:02:17.385Z,38.60
2023-04-02T14:04:51.108Z,38.50
2023-04-02T14:07:38.144Z,38.70
2023-04-02T14:10:35.166Z,37.60
2023-04-02T14:13:27.570Z,37.90
2023-04-02T14:16:14.450Z,37.60
2023-04-02T14:19:07.727Z,36.60
2023-04-02T14:21:44.529Z,37.20
2023-04-02T14:24:21.308Z,37.20
2023-04-02T14:27:07.716Z,36.10
2023-04-02T14:29:53.823Z,35.50
2023-04-02T14:32:27.137Z,36.20
2023-04-02T14:35:24.341Z,36.70
2023-04-02T14:38:02.020Z,35.80
2023-04-02T14:40:31.677Z,36.60
2023-04-02T14:43:05.817Z,36.30
2023-04-02T14:45:39.391Z,35.60
2023-04-02T14:48:16.954Z,33.40
2023-04-02T14:50:44.764Z,33.60
2023-04-02T14:53:21.198Z,34.10
2023-04-02T14:55:51.997Z,33.60
2023-04-02T14:58:26.449Z,33.90
2023-04-02T15:01:01.997Z,34.60
2023-04-02T15:03:43.355Z,35.30
2023-04-02T15:06:15.325Z,35.70
2023-04-02T15:08:58.574Z,34.40
2023-04-02T15:11:42.891Z,35.30
2023-04-02T15:14:19.043Z,34.20
2023-04-02T15:16:47.413Z,35.20
2023-04-02T15:19:18.436Z,35.20
2023-04-02T15:22:08.712Z,35.60
2023-04-02T15:24:56.634Z,35.30
2023-04-02T15:27:34.129Z,35.60
2023-04-02T15:30:15.190Z,34.90
2023-04-02T15:32:44.519Z,35.30
2023-04-02T15:35:18.622Z,35.70
2023-04-02T15:38:14.947Z,35.90
2023-04-02T15:40:49.284Z,36.40
2023-04-02T15:43:36.259Z,36.00
2023-04-02T15:46:29.822Z,36.20
2023-04-02T15:49:22.020Z,36.00
2023-04-02T15:52:06.026Z,36.50
2023-04-02T15:55:10.595Z,36.80
2023-04-02T15:58:31.933Z,35.20
2023-04-02T16:01:31.007Z,35.80
2023-04-02T16:04:11.330Z,35.90
2023-04-02T16:06:48.197Z,36.30
2023-04-02T16:09:45.440Z,35.80
2023-04-02T16:12:17.656Z,36.60
2023-04-02T16:14:48.025Z,36.90
2023-04-02T16:17:24.834Z,37.00
2023-04-02T16:20:15.131Z,36.50
2023-04-02T16:22:59.459Z,37.20
2023-04-02T16:25:33.573Z,37.10
2023-04-02T16:28:13.032Z,37.10
2023-04-02T16:30:49.233Z,37.50
2023-04-02T16:33:54.155Z,38.00
2023-04-02T16:36:54.505Z,37.90
2023-04-02T16:39:47.584Z,37.80
2023-04-02T16:42:21.783Z,38.70
2023-04-02T16:45:10.754Z,39.50
2023-04-02T16:48:04.635Z,39.00
2023-04-02T16:50:57.409Z,39.50
2023-04-02T16:53:31.208Z,40.40
2023-04-02T16:56:27.449Z,41.20
2023-04-02T16:59:14.003Z,41.70
2023-04-02T17:01:50.783Z,42.30
2023-04-02T17:04:27.150Z,42.70
2023-04-02T17:07:12.496Z,42.90
2023-04-02T17:09:51.632Z,42.40
2023-04-02T17:12:33.384Z,43.20
2023-04-02T17:15:28.838Z,43.50
2023-04-02T17:17:59.118Z,43.90
2023-04-02T17:20:28.552Z,44.50
2023-04-02T17:22:57.509Z,44.70
2023-04-02T17:25:36.598Z,44.60
2023-04-02T17:28:12.595Z,44.90
2023-04-02T17:30:50.695Z,45.60
2023-04-02T17:33:19.561Z,46.20
2023-04-02T17:36:24.989Z,46.70
2023-04-02T17:39:23.099Z,47.30
2023-04-02T17:42:09.841Z,48.00
2023-04-02T17:44:44.084Z,48.60
2023-04-02T17:47:11.586Z,49.40
2023-04-02T17:49:41.840Z,49.60
2023-04-02T17:52:30.181Z,50.40
2023-04-02T17:55:06.717Z,51.10
2023-04-02T17:58:01.736Z,51.70
2023-04-02T18:00:47.933Z,52.50
2023-04-02T18:03:27.965Z,52.80
2023-04-02T18:06:18.936Z,53.50
2023-04-02T18:08:59.652Z,54.20
2023-04-02T18:11:44.931Z,54.80
2023-04-02T18:14:27.635Z,55.50
2023-04-02T18:17:21.962Z,55.90
2023-04-02T18:19:53.877Z,56.30
2023-04-02T18:22:34.698Z,57.30
2023-04-02T18:25:25.358Z,58.60
2023-04-02T18:28:22.139Z,58.50
2023-04-02T18:31:02.126Z,59.40
2023-04-02T18:33:42.992Z,60.20
2023-04-02T18:36:29.609Z,61.30
2023-04-02T18:39:06.598Z,61.80
2023-04-02T18:41:37.459Z,63.30
2023-04-02T18:44:14.858Z,64.10
2023-04-02T18:46:50.801Z,64.60
2023-04-02T18:49:41.058Z,65.60
2023-04-02T18:52:14.919Z,67.60
2023-04-02T18:55:06.379Z,69.00
2023-04-02T18:57:39.223Z,70.70
2023-04-02T19:00:29.114Z,71.60
2023-04-02T19:03:24.222Z,72.80
2023-04-02T19:05:55.965Z,74.30
2023-04-02T19:08:48.186Z,75.50
2023-04-02T19:11:17.322Z,76.50
2023-04-02T19:13:49.100Z,78.00
2023-04-02T19:16:25.020Z,79.50
2023-04-02T19:19:02.692Z,80.90
2023-04-02T19:21:56.134Z,82.50
2023-04-02T19:24:42.610Z,83.60
2023-04-02T19:27:25.271Z,84.70
2023-04-02T19:30:30.002Z,85.50
2023-04-02T19:33:44.119Z,87.60
2023-04-02T19:36:15.006Z,89.00
2023-04-02T19:39:12.126Z,90.40
2023-04-02T19:41:39.781Z,91.10
2023-04-02T19:44:11.758Z,91.40
2023-04-02T19:46:41.919Z,91.70
2023-04-02T19:49:23.250Z,91.90
2023-04-02T19:51:52.495Z,92.30
2023-04-02T19:54:22.480Z,92.60
2023-04-02T19:56:52.445Z,93.20
2023-04-02T19:59:21.888Z,93.10
2023-04-02T20:01:51.567Z,93.60
2023-04-02T20:04:20.501Z,93.90
2023-04-02T20:06:49.568Z,94.30
2023-04-02T20:09:18.757Z,94.70
2023-04-02T20:11:47.658Z,95.10
2023-04-02T20:14:15.752Z,95.60
2023-04-02T20:16:45.721Z,95.90
2023-04-02T20:19:14.834Z,96.50
2023-04-02T20:21:43.000Z,96.90
2023-04-02T20:24:10.701Z,97.40
2023-04-02T20:26:38.349Z,97.90
2023-04-02T20:29:06.130Z,98.60
2023-04-02T20:31:34.631Z,98.90
2023-04-02T20:34:05.784Z,99.20
2023-04-02T20:36:35.364Z,99.60
2023-04-02T20:39:03.889Z,99.80
2023-04-02T20:41:31.744Z,99.90
2023-04-02T20:44:00.201Z,99.90
2023-04-02T20:46:28.878Z,99.90
2023-04-02T20:48:57.130Z,99.90
2023-04-02T20:51:24.731Z,99.90
2023-04-02T20:53:52.278Z,99.90
2023-04-02T20:56:22.172Z,99.90
2023-04-02T20:58:50.555Z,99.90
2023-04-02T21:01:25.990Z,99.90
2023-04-02T21:04:03.225Z,99.90
2023-04-02T21:06:33.623Z,99.90
2023-04-02T21:09:02.367Z,99.90
2023-04-02T21:11:29.984Z,99.90
2023-04-02T21:13:57.680Z,99.90
2023-04-02T21:16:31.520Z,99.90
2023-04-02T21:19:05.294Z,99.90
2023-04-02T21:21:33.236Z,99.90
2023-04-02T21:24:03.356Z,99.90
2023-04-02T21:26:34.640Z,99.90
2023-04-02T21:29:03.472Z,99.90
2023-04-02T21:31:35.031Z,99.90
2023-04-02T21:34:03.029Z,99.90
2023-04-02T21:36:33.900Z,99.90
2023-04-02T21:39:10.093Z,99.90
2023-04-02T21:41:40.867Z,99.90
2023-04-02T21:44:12.574Z,99.90
2023-04-02T21:46:44.229Z,99.90
2023-04-02T21:49:12.587Z,99.90
2023-04-02T21:51:41.908Z,99.90
2023-04-02T21:54:09.904Z,99.90
2023-04-02T21:56:39.448Z,99.90
2023-04-02T21:59:09.384Z,99.90
2023-04-02T22:01:40.454Z,99.90
2023-04-02T22:04:09.499Z,99.90
2023-04-02T22:06:40.105Z,99.90
2023-04-02T22:09:12.548Z,99.90
2023-04-02T22:11:48.711Z,99.90
2023-04-02T22:14:16.381Z,99.90
2023-04-02T22:16:44.397Z,99.90
2023-04-02T22:19:14.740Z,99.90
2023-04-02T22:21:42.801Z,99.90
2023-04-02T22:24:14.341Z,99.90
2023-04-02T22:26:42.600Z,99.90
2023-04-02T22:29:10.741Z,99.90
2023-04-02T22:31:38.385Z,99.90
2023-04-02T22:34:06.648Z,99.90
2023-04-02T22:36:34.389Z,99.90
2023-04-02T22:39:05.488Z,99.90
2023-04-02T22:41:33.466Z,99.90
2023-04-02T22:44:01.926Z,99.90
2023-04-02T22:46:30.235Z,99.90
2023-04-02T22:48:57.968Z,99.90
2023-04-02T22:51:27.678Z,99.90
2023-04-02T22:53:56.099Z,99.90
2023-04-02T22:56:28.860Z,99.90
2023-04-02T22:58:56.480Z,99.90
2023-04-02T23:01:28.102Z,99.90
2023-04-02T23:03:56.384Z,99.90
2023-04-02T23:06:26.423Z,99.90
2023-04-02T23:08:54.072Z,99.90
2023-04-02T23:11:27.520Z,99.90
2023-04-02T23:13:56.994Z,99.90
2023-04-02T23:16:27.263Z,99.90
2023-04-02T23:18:56.642Z,99.90
2023-04-02T23:21:24.721Z,99.90
2023-04-02T23:23:53.043Z,99.90
2023-04-02T23:26:31.463Z,99.90
2023-04-02T23:29:00.850Z,99.90
2023-04-02T23:31:28.609Z,99.90
2023-04-02T23:33:56.259Z,99.90
2023-04-02T23:36:23.775Z,99.90
2023-04-02T23:38:55.269Z,99.90
2023-04-02T23:41:24.460Z,99.90
2023-04-02T23:43:52.028Z,99.90
2023-04-02T23:46:20.596Z,99.90
2023-04-02T23:48:51.937Z,99.90
2023-04-02T23:51:19.795Z,99.90
2023-04-02T23:53:48.663Z,99.90
2023-04-02T23:56:16.944Z,99.90
2023-04-02T23:58:45.578Z,99.90
